Current Weather

DuPage County

West Chicago, Illinois (KDPA)

Report from: Wednesday, August 17, 2022 6:52 PM CDT
Current time: Wednesday, August 17, 2022 7:55 PM CDT

Nearby weather
Weather history
Weather forecast

Temperature25.0°C (77.0°F)
Dew point14.4°C (57.9°F)
Winds 6 kts (3.1 m/s, 6.9 mph) Northeast (50°)
Visibility10 mi. (16.1 km)
Clouds Sky clear
Altimeter30.08 in.Hg (1019 mB)
Relative humidity52 %
Density altitude1,206 ft. (367 m)
Sea-level pressure101.8 kPa (1018 mB, 30.07 in.Hg)
Max temp last 6 hours28.3°C (82.9°F)
Min temp last 6 hours24.4°C (75.9°F)
Remarks Automated weather observing station with precipitation discriminator
Pressure falling, then rising
Flight conditions Visual Meteorological Conditions
Raw dataKDPA 172352Z 05006KT 10SM CLR 25/14 A3008 RMK AO2 SLP182 T02500144 10283 20244 55004
An error has occurred. This application may no longer respond until reloaded. Reload 🗙